• Join FlightAware (Why Join?)
  • Login
  • US Flag 
05:36AM EDT


 

Airport Tracker/Info


-or-


 

Live Flight TrackerFlight Track Log ✈ N888FM ✈ 28-Jan-2014 ✈ KTEB - KAVP

Flight Track Log - Related Links

Times and Time Zones

All times are in EST time to prevent confusion due to time zone crossing. See the N888FM flight status page for this flight to view local times or setup timezone preferences in your user account.

Time Position Orientation Groundspeed Altitude Reporting Facility
EST Latitude Longitude Course Direction KTS MPH feet Rate Location/Type
02:53PM 40.9167 -74.0500 303° West 226 260 2,000  Level New York TRACON
02:54PM 40.9167 -74.1167 270° West 226 260 3,000 1,020 Climbing New York TRACON
02:55PM 40.9167 -74.2000 270° West 232 267 4,000 840 Climbing New York TRACON
02:56PM 40.9167 -74.2833 270° West 237 273 4,800 1,500 Climbing New York TRACON
02:57PM 40.8667 -74.3333 217° Southwest 217 250 7,100 1,920 Climbing New York TRACON
02:58PM 41.0392 -74.4859 303° West  Level FlightAware Approximate
02:58PM 40.9000 -74.3833 311° West 232 267 8,700  Level New York TRACON
02:59PM 40.9667 -74.4000 349° North 251 289 9,100 180 Climbing New York TRACON
03:00PM 41.0000 -74.4667 304° West 240 276 9,100 -360 Level New York TRACON
03:01PM 41.0500 -74.5333 315° West 250 288 8,400 -720 Descending New York TRACON
03:03PM 41.1125 -74.6458 306° West  Level FlightAware Approximate
03:10PM 41.3353 -75.1609 300° West  Level FlightAware Approximate
03:11PM 41.3672 -75.2345 304° West  Level FlightAware Approximate
03:12PM 41.4000 -75.3064 270° West  Level FlightAware Approximate
03:13PM 41.4228 -75.3850 294° West  Level FlightAware Approximate
03:14PM 41.4585 -75.4544 312° West  Level FlightAware Approximate
03:15PM 41.4428 -75.5239 217° Southwest  Level FlightAware Approximate
03:16PM 41.3993 -75.5846 236° Southwest  Level FlightAware Approximate
03:17PM 41.3639 -75.6555 236° Southwest  Level FlightAware Approximate
03:18PM 41.3333 -75.7167 236° Southwest  Level FlightAware Approximate
03:19PM 41.3385 -75.7234 236° Southwest  Level Estimated
03:20PM 41.3333 -75.7167 236° Southwest  Level FlightAware Approximate
03:21PM 41.3385 -75.7234 236° Southwest  Level Estimated
03:22PM 41.3333 -75.7167 236° Southwest  Level FlightAware Approximate
03:23PM 41.3385 -75.7234 236° Southwest  Level Estimated
03:24PM 41.3333 -75.7167 236° Southwest  Level FlightAware Approximate
03:25PM 41.3385 -75.7234 236° Southwest  Level Estimated